Tolar, New Mexico
Current Conditions -  °F | °C
As of 1:56 PM on Saturday 20 Dec 2014 (Local Time) from K4MR Reporting Station
Clear Clear  
Wind Chill: 44°   Ceiling: Unl
Heat Index: 48°   Visibility: 10mi
Dew Point: 19°   Wind: 9mph
Humidity: 31%   Direction: 270°W
Pressure: 30.01"   Gusts: NA
Location:  34.3861°N, 104.044°W
Report Text: K4MR 202056Z AUTO 27008KT 10SM CLR 09/M07 A3001 RMK AO2 SLP163 T00881074 57023
Loading
Personal Weather Stations






























Interactive Weather Map New forecast layout! Learn more

10-Day Weather Forecast

Advertisements
Track Severe Weather on mobile